Time;durP1;ratioP1;P1;durP2;ratioP2;P2;SDS_P1;SDS_P2;PMS_P1;PMS_P2;Temp;Humidity;BMP_temperature;BMP_pressure;BME280_temperature;BME280_humidity;BME280_pressure;Samples;Min_cycle;Max_cycle;Signal;HPM_P1;HPM_P2
2024/01/26 00:00:28;;;;;;;23.17;8.32;;;5.50;1.00;;;;;;5071841;28;20680;-75
2024/01/26 00:02:55;;;;;;;17.30;7.10;;;5.40;1.00;;;;;;5071706;28;20251;-74
2024/01/26 00:05:23;;;;;;;11.95;6.63;;;5.30;1.00;;;;;;5071920;27;20326;-74
2024/01/26 00:07:50;;;;;;;22.50;6.68;;;5.30;1.00;;;;;;5072159;27;20265;-74
2024/01/26 00:10:17;;;;;;;14.32;6.82;;;5.30;1.00;;;;;;5068814;28;20313;-76
2024/01/26 00:12:44;;;;;;;13.77;6.97;;;5.20;1.00;;;;;;5067638;28;20242;-74
2024/01/26 00:15:11;;;;;;;9.60;7.53;;;5.20;1.00;;;;;;5063063;27;20989;-74
2024/01/26 00:17:38;;;;;;;17.75;7.28;;;5.10;1.00;;;;;;5071599;28;20475;-74
2024/01/26 00:20:06;;;;;;;12.23;6.80;;;5.00;1.00;;;;;;5071011;28;20241;-74
2024/01/26 00:22:34;;;;;;;18.83;8.20;;;5.10;1.00;;;;;;5072776;28;20317;-75
2024/01/26 00:25:02;;;;;;;15.33;6.80;;;5.00;1.00;;;;;;5073909;27;20757;-76
2024/01/26 00:27:28;;;;;;;14.80;7.13;;;5.00;1.00;;;;;;5069372;28;20511;-76
2024/01/26 00:29:56;;;;;;;14.43;7.40;;;5.00;1.00;;;;;;5072908;28;20328;-76
2024/01/26 00:32:23;;;;;;;16.88;7.55;;;5.00;1.00;;;;;;5067406;27;20269;-75
2024/01/26 00:34:49;;;;;;;14.75;6.60;;;5.10;1.00;;;;;;5071573;28;20317;-76
2024/01/26 00:37:16;;;;;;;12.63;6.68;;;5.20;1.00;;;;;;5070732;28;20605;-74
2024/01/26 00:39:47;;;;;;;17.27;6.90;;;5.20;1.00;;;;;;5075182;27;20236;-74
2024/01/26 00:42:14;;;;;;;15.48;7.47;;;5.30;1.00;;;;;;5067706;28;20253;-73
2024/01/26 00:44:41;;;;;;;17.90;6.72;;;5.30;1.00;;;;;;5074056;28;20336;-73
2024/01/26 00:47:08;;;;;;;19.15;6.85;;;5.30;1.00;;;;;;5072850;28;20330;-74
2024/01/26 00:49:35;;;;;;;13.38;6.90;;;5.30;1.00;;;;;;5070484;28;20300;-74
2024/01/26 00:52:02;;;;;;;20.85;7.55;;;5.30;1.00;;;;;;5069670;28;20242;-71
2024/01/26 00:54:29;;;;;;;13.07;6.20;;;5.30;1.00;;;;;;5070060;28;20332;-70
2024/01/26 00:56:57;;;;;;;15.30;7.65;;;5.20;1.00;;;;;;5070366;28;20515;-70
2024/01/26 00:59:24;;;;;;;17.90;6.78;;;5.10;1.00;;;;;;5069348;28;20923;-73
2024/01/26 01:01:51;;;;;;;16.48;7.85;;;5.10;1.00;;;;;;5070585;28;20333;-72
2024/01/26 01:04:19;;;;;;;18.97;7.20;;;5.00;1.00;;;;;;5070030;27;20240;-71
2024/01/26 01:06:46;;;;;;;23.67;7.65;;;4.90;1.00;;;;;;5068032;27;20492;-74
2024/01/26 01:09:13;;;;;;;18.92;8.40;;;4.90;1.00;;;;;;5067295;27;20266;-71
2024/01/26 01:11:39;;;;;;;16.25;7.63;;;4.80;1.00;;;;;;5069695;28;20244;-71
2024/01/26 01:14:08;;;;;;;14.57;7.30;;;4.60;1.00;;;;;;5068067;27;20253;-72
2024/01/26 01:16:35;;;;;;;15.55;7.88;;;4.70;1.00;;;;;;5051593;28;20287;-71
2024/01/26 01:19:02;;;;;;;16.63;8.07;;;4.60;1.00;;;;;;5063251;28;20251;-71
2024/01/26 01:21:29;;;;;;;21.63;7.78;;;4.60;1.00;;;;;;5068599;28;21157;-71
2024/01/26 01:23:56;;;;;;;17.85;9.07;;;4.50;1.00;;;;;;5070895;28;20247;-71
2024/01/26 01:26:22;;;;;;;21.48;7.43;;;4.50;1.00;;;;;;5065134;27;20990;-72
2024/01/26 01:28:49;;;;;;;16.75;7.35;;;4.50;1.00;;;;;;5066233;28;20256;-70
2024/01/26 01:31:18;;;;;;;17.42;6.93;;;4.50;1.00;;;;;;5070583;28;20332;-72
2024/01/26 01:33:44;;;;;;;13.02;7.47;;;4.50;1.00;;;;;;5068995;28;20328;-71
2024/01/26 01:36:11;;;;;;;12.30;6.50;;;4.40;1.00;;;;;;5070193;27;20241;-72
2024/01/26 01:38:38;;;;;;;16.17;6.80;;;4.20;1.00;;;;;;5070926;28;20236;-71
2024/01/26 01:41:05;;;;;;;16.88;7.22;;;4.10;1.00;;;;;;5068155;27;20241;-73
2024/01/26 01:43:34;;;;;;;13.82;6.35;;;4.00;1.00;;;;;;5067251;28;20241;-70
2024/01/26 01:46:01;;;;;;;16.67;7.65;;;4.10;1.00;;;;;;5070570;28;20248;-70
2024/01/26 01:48:29;;;;;;;19.27;7.90;;;4.10;1.00;;;;;;5067751;28;20312;-69
2024/01/26 01:50:56;;;;;;;17.70;7.93;;;4.00;1.00;;;;;;5068241;28;21063;-70
2024/01/26 01:53:25;;;;;;;12.65;6.82;;;4.00;1.00;;;;;;5068930;27;20263;-71
2024/01/26 01:55:53;;;;;;;12.55;6.78;;;4.00;1.00;;;;;;5064712;28;20307;-71
2024/01/26 01:58:22;;;;;;;20.00;8.15;;;4.00;1.00;;;;;;5068126;27;20277;-72
2024/01/26 02:00:49;;;;;;;21.80;9.52;;;4.00;1.00;;;;;;5071094;27;20240;-75
2024/01/26 02:03:18;;;;;;;15.13;8.30;;;4.00;1.00;;;;;;5070575;28;20252;-74
2024/01/26 02:05:46;;;;;;;15.27;8.13;;;4.00;1.00;;;;;;5070438;27;20266;-74
2024/01/26 02:08:13;;;;;;;14.80;7.45;;;3.90;1.00;;;;;;5067650;27;20240;-74
2024/01/26 02:10:40;;;;;;;15.35;8.38;;;3.90;1.00;;;;;;5069792;28;20247;-74
2024/01/26 02:13:07;;;;;;;20.83;6.97;;;3.80;1.00;;;;;;5070442;27;20355;-74
2024/01/26 02:15:34;;;;;;;21.40;8.45;;;3.90;1.00;;;;;;5069729;28;20260;-74
2024/01/26 02:18:01;;;;;;;23.63;7.45;;;3.90;1.00;;;;;;5070607;28;20248;-74
2024/01/26 02:20:28;;;;;;;15.00;7.57;;;3.90;1.00;;;;;;5070811;27;20267;-74
2024/01/26 02:22:57;;;;;;;18.35;9.27;;;3.80;1.00;;;;;;5071177;28;20984;-74
2024/01/26 02:25:25;;;;;;;15.88;8.25;;;3.70;1.00;;;;;;5067293;28;20362;-74
2024/01/26 02:27:53;;;;;;;19.92;8.02;;;3.70;1.00;;;;;;5064269;28;20244;-77
2024/01/26 02:30:20;;;;;;;14.10;7.88;;;3.70;1.00;;;;;;5068033;27;20264;-75
2024/01/26 02:32:47;;;;;;;16.65;8.23;;;3.60;1.00;;;;;;5072509;28;20320;-74
2024/01/26 02:35:14;;;;;;;16.38;8.60;;;3.60;1.00;;;;;;5061213;27;20267;-74
2024/01/26 02:37:41;;;;;;;19.75;8.15;;;3.60;1.00;;;;;;5081097;27;20307;-74
2024/01/26 02:40:09;;;;;;;14.23;7.57;;;3.70;1.00;;;;;;5069371;27;20327;-74
2024/01/26 02:42:37;;;;;;;20.70;9.10;;;3.60;1.00;;;;;;5064912;28;20252;-75
2024/01/26 02:45:05;;;;;;;16.45;7.68;;;3.50;1.00;;;;;;5070248;28;20244;-74
2024/01/26 02:47:32;;;;;;;17.23;7.97;;;3.50;1.00;;;;;;5066809;27;20265;-74
2024/01/26 02:49:59;;;;;;;17.70;9.35;;;3.50;1.00;;;;;;5074108;28;20445;-74
2024/01/26 02:52:26;;;;;;;16.83;8.45;;;3.40;1.00;;;;;;5068269;28;20314;-73
2024/01/26 02:54:52;;;;;;;20.80;10.02;;;3.40;1.00;;;;;;5071140;28;20248;-74
2024/01/26 02:57:19;;;;;;;19.48;8.65;;;3.40;1.00;;;;;;5072436;28;21680;-74
2024/01/26 02:59:48;;;;;;;19.77;8.98;;;3.30;1.00;;;;;;5067194;28;20240;-75
2024/01/26 03:02:15;;;;;;;25.58;9.07;;;3.30;1.00;;;;;;5066780;28;20611;-74
2024/01/26 03:04:42;;;;;;;17.02;8.50;;;3.30;1.00;;;;;;5067623;27;20236;-77
2024/01/26 03:07:08;;;;;;;14.57;7.50;;;3.30;1.00;;;;;;5070796;27;20236;-74
2024/01/26 03:12:03;;;;;;;23.48;8.93;;;3.30;1.00;;;;;;5029516;28;20241;-74
2024/01/26 03:14:30;;;;;;;12.90;7.78;;;3.30;1.00;;;;;;5037042;28;20245;-74
2024/01/26 03:16:59;;;;;;;17.35;8.70;;;3.20;1.00;;;;;;5043765;28;20792;-73
2024/01/26 03:19:26;;;;;;;17.83;8.93;;;3.10;1.00;;;;;;5043144;28;20266;-71
2024/01/26 03:21:53;;;;;;;19.38;8.07;;;3.10;1.00;;;;;;5031262;28;20695;-71
2024/01/26 03:24:20;;;;;;;17.58;8.98;;;3.10;1.00;;;;;;5030583;28;20308;-73
2024/01/26 03:26:47;;;;;;;14.95;8.90;;;3.00;1.00;;;;;;5029274;28;20246;-72
2024/01/26 03:29:14;;;;;;;18.30;9.27;;;2.90;1.00;;;;;;5026111;28;20238;-72
2024/01/26 03:31:40;;;;;;;16.13;9.45;;;2.90;1.00;;;;;;5036047;28;20350;-70
2024/01/26 03:34:09;;;;;;;15.35;8.57;;;2.90;1.00;;;;;;5045985;28;20245;-70
2024/01/26 03:36:36;;;;;;;22.50;10.85;;;2.90;1.00;;;;;;5046846;28;20260;-72
2024/01/26 03:39:04;;;;;;;17.40;9.55;;;2.90;1.00;;;;;;5049577;28;20295;-71
2024/01/26 03:41:31;;;;;;;19.08;9.23;;;3.00;1.00;;;;;;5049768;28;20241;-70
2024/01/26 03:43:58;;;;;;;15.98;8.68;;;3.00;1.00;;;;;;5047839;28;20271;-73
2024/01/26 03:46:24;;;;;;;22.95;9.20;;;3.00;1.00;;;;;;5048012;28;20237;-71
2024/01/26 03:48:51;;;;;;;19.88;8.90;;;3.00;1.00;;;;;;5049219;28;20327;-71
2024/01/26 03:51:20;;;;;;;15.93;9.25;;;3.10;1.00;;;;;;5034671;28;20317;-71
2024/01/26 03:53:46;;;;;;;17.52;8.88;;;3.10;1.00;;;;;;5050088;28;20722;-71
2024/01/26 03:56:14;;;;;;;18.70;9.55;;;3.20;1.00;;;;;;5048948;28;20346;-70
2024/01/26 03:58:40;;;;;;;14.25;8.07;;;3.20;1.00;;;;;;5047816;28;21039;-71
2024/01/26 04:01:07;;;;;;;14.55;7.85;;;3.30;1.00;;;;;;5048326;28;20233;-71
2024/01/26 04:03:34;;;;;;;15.25;9.05;;;3.20;1.00;;;;;;5048487;28;20233;-74
2024/01/26 04:06:03;;;;;;;15.05;8.10;;;3.20;1.00;;;;;;5050756;28;20238;-72
2024/01/26 04:08:31;;;;;;;20.50;8.75;;;3.20;1.00;;;;;;5045028;28;20760;-71
2024/01/26 04:10:58;;;;;;;23.33;9.20;;;3.30;1.00;;;;;;5031372;28;20259;-73
2024/01/26 04:13:25;;;;;;;16.23;9.38;;;3.40;1.00;;;;;;5041185;28;22976;-71
2024/01/26 04:15:52;;;;;;;19.27;7.82;;;3.50;1.00;;;;;;5054601;28;20288;-73
2024/01/26 04:18:19;;;;;;;21.70;8.73;;;3.40;1.00;;;;;;5052881;28;20258;-73
2024/01/26 04:20:47;;;;;;;21.27;9.30;;;3.40;1.00;;;;;;5039438;28;20242;-72
2024/01/26 04:23:14;;;;;;;16.83;9.18;;;3.30;1.00;;;;;;5052173;28;20249;-74
2024/01/26 04:25:42;;;;;;;15.15;9.18;;;3.40;1.00;;;;;;5041565;28;20241;-72
2024/01/26 04:28:09;;;;;;;20.30;9.85;;;3.40;1.00;;;;;;5041274;28;20342;-71
2024/01/26 04:30:36;;;;;;;17.67;9.60;;;3.40;1.00;;;;;;5044456;28;20729;-72
2024/01/26 04:33:04;;;;;;;20.17;10.98;;;3.30;1.00;;;;;;5043935;28;20241;-72
2024/01/26 04:35:31;;;;;;;16.92;8.80;;;3.30;1.00;;;;;;5033540;28;21010;-71
2024/01/26 04:37:57;;;;;;;19.73;9.05;;;3.30;1.00;;;;;;5032790;28;20330;-72
2024/01/26 04:40:24;;;;;;;20.75;9.65;;;3.30;1.00;;;;;;5042619;28;20994;-72
2024/01/26 04:42:54;;;;;;;17.92;10.38;;;3.30;1.00;;;;;;5054775;28;20372;-71
2024/01/26 04:45:20;;;;;;;26.17;11.68;;;3.30;1.00;;;;;;5044081;28;20243;-71
2024/01/26 04:47:47;;;;;;;16.80;10.10;;;3.30;1.00;;;;;;5035638;28;20777;-72
2024/01/26 04:50:14;;;;;;;24.23;10.50;;;3.40;1.00;;;;;;5038312;28;20285;-73
2024/01/26 04:52:41;;;;;;;19.33;9.25;;;3.40;1.00;;;;;;5043329;28;20302;-73
2024/01/26 04:55:09;;;;;;;21.08;10.63;;;3.40;1.00;;;;;;5050929;28;20713;-72
2024/01/26 04:57:36;;;;;;;22.08;9.57;;;3.30;1.00;;;;;;5047771;28;20239;-72
2024/01/26 05:00:06;;;;;;;14.70;9.50;;;3.30;1.00;;;;;;5047207;28;20245;-72
2024/01/26 05:02:33;;;;;;;15.52;9.00;;;3.30;1.00;;;;;;5042351;28;20234;-71
2024/01/26 05:05:00;;;;;;;17.38;9.73;;;3.30;1.00;;;;;;5035206;28;20237;-72
2024/01/26 05:07:27;;;;;;;16.70;9.50;;;3.30;1.00;;;;;;5042912;28;20717;-72
2024/01/26 05:09:54;;;;;;;21.92;10.65;;;3.30;1.00;;;;;;5052637;28;20285;-72
2024/01/26 05:12:21;;;;;;;13.40;9.55;;;3.20;1.00;;;;;;5036922;28;20793;-72
2024/01/26 05:14:48;;;;;;;20.75;9.68;;;3.20;1.00;;;;;;5045803;28;20245;-73
2024/01/26 05:17:17;;;;;;;16.42;9.52;;;3.20;1.00;;;;;;5032487;28;20266;-72
2024/01/26 05:19:44;;;;;;;14.50;9.50;;;3.20;1.00;;;;;;5051366;28;20268;-71
2024/01/26 05:22:11;;;;;;;14.75;8.90;;;3.30;1.00;;;;;;5033453;28;21058;-74
2024/01/26 05:24:37;;;;;;;16.85;9.90;;;3.30;1.00;;;;;;5043935;28;20241;-73
2024/01/26 05:27:05;;;;;;;14.55;9.45;;;3.40;1.00;;;;;;5034350;28;20361;-71
2024/01/26 05:29:32;;;;;;;24.20;10.68;;;3.40;1.00;;;;;;5028820;28;20950;-73
2024/01/26 05:31:59;;;;;;;19.73;10.52;;;3.40;1.00;;;;;;5031737;28;20341;-71
2024/01/26 05:34:27;;;;;;;17.30;9.90;;;3.50;1.00;;;;;;5046389;28;20277;-73
2024/01/26 05:36:54;;;;;;;21.40;10.60;;;3.50;1.00;;;;;;5039049;28;20242;-72
2024/01/26 05:39:21;;;;;;;13.68;9.98;;;3.40;1.00;;;;;;5040730;28;20681;-72
2024/01/26 05:41:48;;;;;;;17.75;9.93;;;3.40;1.00;;;;;;5040161;28;20320;-72
2024/01/26 05:44:15;;;;;;;18.70;9.40;;;3.50;1.00;;;;;;5048429;28;20276;-72
2024/01/26 05:46:42;;;;;;;18.52;9.10;;;3.50;1.00;;;;;;5052384;28;20342;-72
2024/01/26 05:49:09;;;;;;;18.63;9.45;;;3.50;1.00;;;;;;5044042;28;20357;-72
2024/01/26 05:51:38;;;;;;;17.27;8.98;;;3.60;1.00;;;;;;5030702;28;20244;-72
2024/01/26 05:54:05;;;;;;;17.58;9.77;;;3.50;1.00;;;;;;5046470;28;20345;-72
2024/01/26 05:56:32;;;;;;;17.55;9.63;;;3.50;1.00;;;;;;5051318;28;20242;-72
2024/01/26 05:58:59;;;;;;;14.38;10.43;;;3.50;1.00;;;;;;5042462;28;20333;-73
2024/01/26 06:01:26;;;;;;;19.05;10.23;;;3.40;1.00;;;;;;5040442;28;20998;-72
2024/01/26 06:03:53;;;;;;;19.55;10.15;;;3.40;1.00;;;;;;5043676;28;20737;-72
2024/01/26 06:06:20;;;;;;;19.55;9.10;;;3.50;1.00;;;;;;5030052;28;20278;-73
2024/01/26 06:08:48;;;;;;;27.67;10.98;;;3.50;1.00;;;;;;5045773;28;20280;-71
2024/01/26 06:11:17;;;;;;;20.30;9.90;;;3.50;1.00;;;;;;5038627;28;20262;-72
2024/01/26 06:13:44;;;;;;;18.80;8.25;;;3.50;1.00;;;;;;5027278;28;20289;-72
2024/01/26 06:16:13;;;;;;;15.30;7.90;;;3.50;1.00;;;;;;5032013;28;20246;-71
2024/01/26 06:18:40;;;;;;;14.90;8.10;;;3.50;1.00;;;;;;5037396;28;20313;-71
2024/01/26 06:21:07;;;;;;;17.42;9.68;;;3.50;1.00;;;;;;5046920;28;20233;-71
2024/01/26 06:23:34;;;;;;;19.08;8.93;;;3.60;1.00;;;;;;5030385;28;20237;-73
2024/01/26 06:26:02;;;;;;;15.55;8.30;;;3.60;1.00;;;;;;5048377;28;20738;-72
2024/01/26 06:28:29;;;;;;;12.85;8.38;;;3.60;1.00;;;;;;5041158;28;20295;-71
2024/01/26 06:30:56;;;;;;;20.30;8.93;;;3.60;1.00;;;;;;5039763;28;20320;-71
2024/01/26 06:33:23;;;;;;;17.88;10.20;;;3.60;1.00;;;;;;5046796;28;21682;-73
2024/01/26 06:35:50;;;;;;;14.63;8.40;;;3.60;1.00;;;;;;5040195;28;20722;-73
2024/01/26 06:38:17;;;;;;;17.48;7.97;;;3.60;1.00;;;;;;5032927;28;20317;-71
2024/01/26 06:40:46;;;;;;;14.13;8.52;;;3.50;1.00;;;;;;5032218;28;20265;-72
2024/01/26 06:43:16;;;;;;;22.67;8.05;;;3.40;1.00;;;;;;5047844;28;20245;-72
2024/01/26 06:45:43;;;;;;;16.95;8.55;;;3.30;1.00;;;;;;5048161;28;20237;-72
2024/01/26 06:48:10;;;;;;;17.10;8.55;;;3.30;1.00;;;;;;5041170;28;20229;-71
2024/01/26 06:50:38;;;;;;;16.65;8.88;;;3.20;1.00;;;;;;5053205;28;20613;-72
2024/01/26 06:53:05;;;;;;;18.35;9.68;;;3.20;1.00;;;;;;5036589;28;20254;-70
2024/01/26 06:55:32;;;;;;;19.20;9.50;;;3.20;1.00;;;;;;5051823;28;20268;-70
2024/01/26 06:57:59;;;;;;;22.67;8.88;;;3.20;1.00;;;;;;5044592;28;20269;-72
2024/01/26 07:00:29;;;;;;;22.42;10.13;;;3.20;1.00;;;;;;5043689;28;20349;-73
2024/01/26 07:02:57;;;;;;;17.25;9.68;;;3.10;1.00;;;;;;5047777;28;20950;-71
2024/01/26 07:05:24;;;;;;;16.00;10.18;;;3.20;1.00;;;;;;5037411;28;21185;-71
2024/01/26 07:07:51;;;;;;;17.88;10.40;;;3.10;1.00;;;;;;5037468;28;20264;-70
2024/01/26 07:10:18;;;;;;;24.13;9.80;;;3.10;1.00;;;;;;5037005;28;20272;-71
2024/01/26 07:12:45;;;;;;;17.58;9.10;;;3.10;1.00;;;;;;5035550;28;20344;-73
2024/01/26 07:15:12;;;;;;;36.65;19.73;;;3.10;1.00;;;;;;5045471;28;20344;-72
2024/01/26 07:17:40;;;;;;;22.02;11.30;;;3.10;1.00;;;;;;5042229;28;20321;-70
2024/01/26 07:20:09;;;;;;;15.68;8.80;;;3.10;1.00;;;;;;5043510;28;20233;-71
2024/01/26 07:22:36;;;;;;;18.30;10.07;;;3.20;1.00;;;;;;5039084;28;20304;-71
2024/01/26 07:25:09;;;;;;;23.88;10.80;;;3.20;1.00;;;;;;5041579;28;20332;-73
2024/01/26 07:27:39;;;;;;;22.02;10.32;;;3.20;1.00;;;;;;5044367;28;20321;-72
2024/01/26 07:30:08;;;;;;;12.32;9.30;;;3.20;1.00;;;;;;5045119;28;20260;-70
2024/01/26 07:32:35;;;;;;;24.05;10.27;;;3.30;1.00;;;;;;5026570;28;20238;-71
2024/01/26 07:35:03;;;;;;;16.35;9.60;;;3.30;1.00;;;;;;5025170;28;20789;-70
2024/01/26 07:37:31;;;;;;;21.63;11.98;;;3.40;1.00;;;;;;5046355;28;20241;-73
2024/01/26 07:40:04;;;;;;;19.20;11.27;;;3.40;1.00;;;;;;5046797;28;20289;-72
2024/01/26 07:42:31;;;;;;;19.15;10.15;;;3.50;1.00;;;;;;5048679;28;20265;-71
2024/01/26 07:44:58;;;;;;;22.17;10.05;;;3.50;1.00;;;;;;5045666;28;20416;-72
2024/01/26 07:47:27;;;;;;;21.88;11.10;;;3.50;1.00;;;;;;5038502;28;20245;-71
2024/01/26 07:49:54;;;;;;;17.67;10.55;;;3.50;1.00;;;;;;5042596;28;20292;-71
2024/01/26 07:52:23;;;;;;;19.63;10.73;;;3.60;1.00;;;;;;5046999;28;20324;-72
2024/01/26 07:54:52;;;;;;;19.33;10.15;;;3.70;1.00;;;;;;5044070;28;20296;-75
2024/01/26 07:57:20;;;;;;;20.90;11.98;;;3.80;1.00;;;;;;5050487;28;20265;-73
2024/01/26 07:59:46;;;;;;;18.40;11.68;;;3.90;1.00;;;;;;5051918;28;20344;-71
2024/01/26 08:02:13;;;;;;;15.70;9.68;;;3.90;1.00;;;;;;5049185;28;20327;-70
2024/01/26 08:04:40;;;;;;;20.77;11.30;;;4.00;1.00;;;;;;5044302;28;20238;-71
2024/01/26 08:07:08;;;;;;;17.52;11.00;;;4.10;1.00;;;;;;5046458;28;20240;-74
2024/01/26 08:09:36;;;;;;;20.98;10.93;;;4.20;1.00;;;;;;5050851;28;20306;-72
2024/01/26 08:12:03;;;;;;;24.90;11.43;;;4.20;1.00;;;;;;5030334;28;20259;-74
2024/01/26 08:14:32;;;;;;;20.70;10.75;;;4.30;1.00;;;;;;5006294;28;20782;-72
2024/01/26 08:16:59;;;;;;;15.10;10.35;;;4.30;1.00;;;;;;5004448;28;20238;-72
2024/01/26 08:19:26;;;;;;;21.80;10.52;;;4.40;1.00;;;;;;5011904;28;20254;-72
2024/01/26 08:21:53;;;;;;;18.77;11.85;;;4.60;1.00;;;;;;5016419;28;20662;-73
2024/01/26 08:24:20;;;;;;;16.63;10.73;;;4.70;1.00;;;;;;5018597;28;20343;-73
2024/01/26 08:26:48;;;;;;;16.60;10.35;;;4.70;1.00;;;;;;5007276;28;20274;-71
2024/01/26 08:29:16;;;;;;;18.98;9.82;;;4.70;1.00;;;;;;5020145;28;20312;-71
2024/01/26 08:31:43;;;;;;;17.20;9.68;;;4.80;1.00;;;;;;5028347;28;20567;-72
2024/01/26 08:34:10;;;;;;;16.77;9.02;;;4.90;1.00;;;;;;5031351;28;20871;-73
2024/01/26 08:36:37;;;;;;;17.05;9.10;;;5.00;1.00;;;;;;5031856;28;21494;-71
2024/01/26 08:39:04;;;;;;;19.70;9.35;;;5.00;1.00;;;;;;5029201;28;20309;-74
2024/01/26 08:41:31;;;;;;;14.38;9.23;;;5.00;1.00;;;;;;5032282;28;20257;-74
2024/01/26 08:44:00;;;;;;;15.73;8.98;;;5.10;1.00;;;;;;5033297;28;20240;-72
2024/01/26 08:46:27;;;;;;;17.67;9.05;;;5.30;1.00;;;;;;5029340;28;20246;-72
2024/01/26 08:48:54;;;;;;;14.82;9.23;;;5.40;1.00;;;;;;5030122;28;20326;-71
2024/01/26 08:51:21;;;;;;;17.55;9.93;;;5.50;1.00;;;;;;5017101;28;20906;-75
2024/01/26 08:53:48;;;;;;;15.25;9.27;;;5.70;1.00;;;;;;5024124;28;20246;-70
2024/01/26 08:56:15;;;;;;;14.93;8.95;;;5.80;1.00;;;;;;5033396;28;20386;-72
2024/01/26 08:58:42;;;;;;;17.93;9.13;;;6.10;1.00;;;;;;5033457;28;20246;-73
2024/01/26 09:01:10;;;;;;;14.90;9.07;;;6.10;1.00;;;;;;5032349;28;20597;-73
2024/01/26 09:03:37;;;;;;;13.95;8.23;;;6.20;1.00;;;;;;5030577;28;21176;-71
2024/01/26 09:06:05;;;;;;;16.30;9.40;;;6.20;1.00;;;;;;5022388;28;20722;-72
2024/01/26 09:08:32;;;;;;;16.10;10.25;;;6.10;1.00;;;;;;5015171;28;20479;-70
2024/01/26 09:10:58;;;;;;;15.85;8.63;;;6.10;1.00;;;;;;5040117;28;20243;-73
2024/01/26 09:13:26;;;;;;;14.85;7.72;;;6.20;1.00;;;;;;5046164;28;20299;-70
2024/01/26 09:15:53;;;;;;;14.67;8.13;;;6.20;1.00;;;;;;5042603;28;20242;-72
2024/01/26 09:18:22;;;;;;;13.40;8.10;;;6.40;1.00;;;;;;5047692;28;20921;-70
2024/01/26 09:20:49;;;;;;;11.40;8.50;;;6.30;1.00;;;;;;5032020;28;21802;-72
2024/01/26 09:23:16;;;;;;;21.30;8.95;;;6.30;1.00;;;;;;5049796;28;20246;-71
2024/01/26 09:25:45;;;;;;;20.20;10.65;;;6.20;1.00;;;;;;5052311;28;20245;-72
2024/01/26 09:28:12;;;;;;;16.50;8.60;;;6.20;1.00;;;;;;5050031;28;20704;-72
2024/01/26 09:30:39;;;;;;;19.50;9.15;;;6.20;1.00;;;;;;5043155;28;20579;-71
2024/01/26 09:33:06;;;;;;;14.65;8.45;;;6.30;1.00;;;;;;5037621;28;20335;-73
2024/01/26 09:35:34;;;;;;;16.80;8.63;;;6.50;1.00;;;;;;5040839;28;20235;-74
2024/01/26 09:38:01;;;;;;;14.40;8.15;;;6.60;1.00;;;;;;5031243;28;20467;-74
2024/01/26 09:40:28;;;;;;;12.13;7.82;;;7.00;1.00;;;;;;5033722;28;20270;-71
2024/01/26 09:42:56;;;;;;;17.53;7.90;;;7.10;1.00;;;;;;5044101;28;20268;-75
2024/01/26 09:45:23;;;;;;;15.33;7.70;;;7.40;1.00;;;;;;5028595;28;21003;-74
2024/01/26 09:47:52;;;;;;;14.53;9.30;;;7.70;1.00;;;;;;5027290;28;21105;-72
2024/01/26 09:50:21;;;;;;;13.30;7.93;;;7.90;1.00;;;;;;5041063;28;20479;-73
2024/01/26 09:52:50;;;;;;;25.47;9.00;;;7.80;1.00;;;;;;5049327;28;20548;-72
2024/01/26 09:55:17;;;;;;;14.97;8.13;;;8.10;1.00;;;;;;5034353;28;20458;-71
2024/01/26 09:57:45;;;;;;;13.10;7.17;;;8.40;1.00;;;;;;5034445;28;20468;-72
2024/01/26 10:00:13;;;;;;;12.30;7.17;;;8.60;1.00;;;;;;5032655;28;20457;-71
2024/01/26 10:02:42;;;;;;;16.93;7.90;;;8.60;1.00;;;;;;5044487;28;20465;-71
2024/01/26 10:05:09;;;;;;;14.20;7.70;;;8.60;1.00;;;;;;5039238;28;20477;-73
2024/01/26 10:07:36;;;;;;;13.53;8.60;;;8.30;1.00;;;;;;5029253;28;21235;-73
2024/01/26 10:10:06;;;;;;;14.40;7.33;;;8.20;1.00;;;;;;5047016;28;20559;-74
2024/01/26 10:12:32;;;;;;;13.50;7.30;;;8.20;1.00;;;;;;5047433;28;21297;-70
2024/01/26 10:15:04;;;;;;;18.70;7.23;;;8.00;1.00;;;;;;5048001;28;20575;-70
2024/01/26 10:17:31;;;;;;;17.20;7.80;;;7.90;1.00;;;;;;5051567;28;20565;-73
2024/01/26 10:20:08;;;;;;;14.27;9.17;;;7.70;1.00;;;;;;5048195;28;21269;-72
2024/01/26 10:22:35;;;;;;;13.40;7.50;;;7.70;1.00;;;;;;5048795;28;20458;-72
2024/01/26 10:25:02;;;;;;;13.30;8.23;;;7.60;1.00;;;;;;5050500;28;20536;-71
2024/01/26 10:27:31;;;;;;;14.13;7.03;;;7.60;1.00;;;;;;5049078;28;22111;-72
2024/01/26 10:29:58;;;;;;;15.87;7.50;;;7.60;1.00;;;;;;5045525;28;21063;-73
2024/01/26 10:32:28;;;;;;;12.03;7.87;;;7.60;1.00;;;;;;5045190;28;20447;-73
2024/01/26 10:34:58;;;;;;;12.30;7.70;;;7.80;1.00;;;;;;5046360;28;20550;-71
2024/01/26 10:37:28;;;;;;;16.50;8.60;;;7.90;1.00;;;;;;5045946;28;21282;-71
2024/01/26 10:39:56;;;;;;;10.77;7.87;;;7.80;1.00;;;;;;5047869;28;20467;-72
2024/01/26 10:42:24;;;;;;;17.37;7.60;;;7.90;1.00;;;;;;5039832;28;21744;-72
2024/01/26 10:44:53;;;;;;;17.00;7.87;;;8.00;1.00;;;;;;5044736;28;20552;-72
2024/01/26 10:47:21;;;;;;;12.43;7.80;;;8.20;1.00;;;;;;5049827;28;20476;-73
2024/01/26 10:49:49;;;;;;;14.00;8.27;;;8.30;1.00;;;;;;5045513;28;21322;-73
2024/01/26 10:52:18;;;;;;;15.20;7.27;;;8.20;1.00;;;;;;5045915;28;20521;-73
2024/01/26 10:54:46;;;;;;;10.57;7.30;;;8.20;1.00;;;;;;5048947;28;20461;-72
2024/01/26 10:57:13;;;;;;;12.80;7.57;;;8.40;1.00;;;;;;5043830;28;20482;-73
2024/01/26 10:59:41;;;;;;;13.93;7.67;;;8.50;1.00;;;;;;5045931;28;20460;-75
2024/01/26 11:02:11;;;;;;;12.60;7.07;;;8.50;1.00;;;;;;5043997;28;20469;-73
2024/01/26 11:04:40;;;;;;;14.63;6.60;;;8.60;1.00;;;;;;5046658;28;20469;-71
2024/01/26 11:07:09;;;;;;;13.50;9.70;;;8.60;1.00;;;;;;5039143;28;20467;-75
2024/01/26 11:09:38;;;;;;;13.30;7.80;;;8.60;1.00;;;;;;5038785;28;21300;-73
2024/01/26 11:12:08;;;;;;;11.00;6.80;;;8.60;1.00;;;;;;5022811;28;20556;-72
2024/01/26 11:14:35;;;;;;;10.33;6.30;;;8.80;1.00;;;;;;5026025;28;20511;-74
2024/01/26 11:17:11;;;;;;;9.33;6.60;;;8.90;1.00;;;;;;5017641;28;20481;-72
2024/01/26 11:19:38;;;;;;;12.70;7.90;;;9.10;1.00;;;;;;5010580;28;20499;-73
2024/01/26 11:22:07;;;;;;;12.33;7.20;;;9.10;1.00;;;;;;5024594;28;20456;-74
2024/01/26 11:24:35;;;;;;;11.23;7.40;;;9.10;1.00;;;;;;5025573;28;20461;-74
2024/01/26 11:27:03;;;;;;;14.13;7.43;;;9.20;1.00;;;;;;5020863;28;20471;-72
2024/01/26 11:29:34;;;;;;;11.43;7.30;;;9.20;1.00;;;;;;5023907;28;20441;-72
2024/01/26 11:32:01;;;;;;;7.57;6.40;;;9.20;1.00;;;;;;5017311;28;20488;-74
2024/01/26 11:34:29;;;;;;;11.90;7.17;;;9.10;1.00;;;;;;5022457;28;20557;-74
2024/01/26 11:37:06;;;;;;;9.73;6.80;;;9.10;1.00;;;;;;5017924;28;20473;-73
2024/01/26 11:39:34;;;;;;;10.87;6.43;;;9.10;1.00;;;;;;5029308;28;20460;-74
2024/01/26 11:42:01;;;;;;;10.13;6.80;;;9.20;1.00;;;;;;5028747;28;20485;-76
2024/01/26 11:44:30;;;;;;;8.50;6.20;;;9.20;1.00;;;;;;5029105;28;21598;-74
2024/01/26 11:46:57;;;;;;;8.33;6.63;;;9.20;1.00;;;;;;5032298;28;21145;-74
2024/01/26 11:49:24;;;;;;;9.57;6.37;;;9.20;1.00;;;;;;5024151;28;20559;-75
2024/01/26 11:51:53;;;;;;;11.37;6.90;;;9.10;1.00;;;;;;5018412;28;20520;-74
2024/01/26 11:54:20;;;;;;;9.00;6.23;;;9.20;1.00;;;;;;5032378;28;20540;-74
2024/01/26 11:56:48;;;;;;;13.50;6.20;;;9.20;1.00;;;;;;5024905;28;20538;-75
2024/01/26 11:59:15;;;;;;;9.70;6.17;;;9.20;1.00;;;;;;5022272;28;20464;-75
2024/01/26 12:01:42;;;;;;;9.17;5.70;;;9.20;1.00;;;;;;5016025;28;20465;-74
2024/01/26 12:04:09;;;;;;;10.80;6.03;;;9.20;1.00;;;;;;5012722;28;20454;-75
2024/01/26 12:06:36;;;;;;;12.60;6.90;;;9.20;1.00;;;;;;5027964;28;20970;-74
2024/01/26 12:09:05;;;;;;;8.33;6.13;;;9.20;1.00;;;;;;5028873;28;20530;-73
2024/01/26 12:11:32;;;;;;;8.50;6.07;;;9.20;1.00;;;;;;5029919;28;21121;-76
2024/01/26 12:13:59;;;;;;;10.07;6.30;;;9.20;1.00;;;;;;5051587;28;20604;-73
2024/01/26 12:16:26;;;;;;;9.20;5.97;;;9.30;1.00;;;;;;5026970;28;20564;-75
2024/01/26 12:18:52;;;;;;;12.10;6.77;;;9.30;1.00;;;;;;5036280;28;20445;-75
2024/01/26 12:21:19;;;;;;;7.33;6.57;;;9.30;1.00;;;;;;5048827;28;20567;-73
2024/01/26 12:23:50;;;;;;;10.07;6.83;;;9.30;1.00;;;;;;5050737;28;20563;-74
2024/01/26 12:26:18;;;;;;;10.30;5.77;;;9.30;1.00;;;;;;5033261;28;20591;-75
2024/01/26 12:28:45;;;;;;;7.63;5.30;;;9.20;1.00;;;;;;5045816;28;20563;-75
2024/01/26 12:31:13;;;;;;;8.73;6.47;;;9.00;1.00;;;;;;5042675;28;20504;-74
2024/01/26 12:33:40;;;;;;;9.87;6.23;;;8.90;1.00;;;;;;5042301;28;20464;-75
2024/01/26 12:36:09;;;;;;;12.33;6.90;;;8.80;1.00;;;;;;5051906;28;20538;-75
2024/01/26 12:38:36;;;;;;;7.63;6.47;;;8.80;1.00;;;;;;5038846;28;20428;-74
2024/01/26 12:41:03;;;;;;;9.63;6.07;;;8.70;1.00;;;;;;5051935;28;20465;-74
2024/01/26 12:43:33;;;;;;;9.70;6.50;;;8.60;1.00;;;;;;5051680;28;20938;-74
2024/01/26 12:46:03;;;;;;;6.53;5.50;;;8.60;1.00;;;;;;5035691;28;20481;-74
2024/01/26 12:48:30;;;;;;;9.27;6.27;;;8.60;1.00;;;;;;5031964;28;20441;-74
2024/01/26 12:51:00;;;;;;;11.27;6.53;;;8.50;1.00;;;;;;5032155;28;20473;-73
2024/01/26 12:53:27;;;;;;;7.60;6.33;;;8.50;1.00;;;;;;5046967;28;20540;-73
2024/01/26 12:55:54;;;;;;;9.67;6.67;;;8.50;1.00;;;;;;5039340;28;21018;-74
2024/01/26 12:58:21;;;;;;;9.53;6.10;;;8.50;1.00;;;;;;5047089;28;20471;-74